Time;durP1;ratioP1;P1;durP2;ratioP2;P2;SDS_P1;SDS_P2;PMS_P1;PMS_P2;Temp;Humidity;BMP_temperature;BMP_pressure;BME280_temperature;BME280_humidity;BME280_pressure;Samples;Min_cycle;Max_cycle;Signal;HPM_P1;HPM_P2
2022/09/05 00:02:03;;;;;;;8.25;4.65;;;;;;;5.77;81.00;99541.03;4896195;29;20055;-56
2022/09/05 00:05:06;;;;;;;7.78;4.60;;;;;;;5.77;81.22;99541.03;4891798;29;20055;-58
2022/09/05 00:07:38;;;;;;;6.63;4.32;;;;;;;5.75;80.65;99545.69;4878691;29;20063;-57
2022/09/05 00:10:14;;;;;;;6.70;4.18;;;;;;;5.74;81.15;99546.69;4880003;29;20590;-57
2022/09/05 00:12:41;;;;;;;5.22;3.80;;;;;;;5.74;81.02;99544.06;4880765;29;20063;-59
2022/09/05 00:15:18;;;;;;;5.85;3.70;;;;;;;5.71;81.63;99553.16;4895815;29;20051;-59
2022/09/05 00:18:22;;;;;;;4.93;3.53;;;;;;;5.74;81.69;99546.69;4880379;29;20056;-58
2022/09/05 00:21:12;;;;;;;5.93;4.05;;;;;;;5.73;81.07;99539.81;4877380;29;20067;-57
2022/09/05 00:24:00;;;;;;;3.78;3.10;;;;;;;5.75;81.25;99545.69;4893269;29;20071;-56
2022/09/05 00:26:43;;;;;;;4.47;3.22;;;;;;;5.77;82.21;99541.03;4893571;29;20040;-57
2022/09/05 00:29:24;;;;;;;3.70;2.97;;;;;;;5.77;81.74;99539.22;4897006;29;20076;-58
2022/09/05 00:32:12;;;;;;;5.35;2.97;;;;;;;5.81;82.22;99534.34;4876962;29;20053;-57
2022/09/05 00:35:10;;;;;;;4.05;2.55;;;;;;;5.82;81.50;99535.94;4895509;29;20057;-57
2022/09/05 00:37:39;;;;;;;5.15;3.03;;;;;;;5.83;82.49;99530.50;4896141;29;20104;-58
2022/09/05 00:40:24;;;;;;;6.05;3.60;;;;;;;5.84;82.35;99529.47;4896730;29;20041;-57
2022/09/05 00:42:56;;;;;;;4.25;3.47;;;;;;;5.85;83.21;99530.28;4878188;29;20067;-58
2022/09/05 00:45:47;;;;;;;5.78;3.28;;;;;;;5.88;82.32;99527.25;4876395;29;20051;-58
2022/09/05 00:48:35;;;;;;;4.10;3.00;;;;;;;5.94;82.07;99526.47;4880993;29;20056;-57
2022/09/05 00:51:09;;;;;;;5.82;3.10;;;;;;;5.98;81.78;99524.25;4896499;29;20044;-57
2022/09/05 00:54:06;;;;;;;4.70;3.10;;;;;;;6.04;81.93;99518.97;4880224;29;20044;-57
2022/09/05 00:56:44;;;;;;;5.00;2.75;;;;;;;6.15;81.15;99509.66;4895320;29;20056;-57
2022/09/05 00:59:47;;;;;;;4.55;3.03;;;;;;;6.28;80.84;99514.09;4896146;29;20530;-57
2022/09/05 01:02:42;;;;;;;3.75;2.85;;;;;;;6.36;79.80;99512.03;4896521;29;20084;-56
2022/09/05 01:06:05;;;;;;;4.25;3.00;;;;;;;6.45;79.46;99509.19;4859412;29;20501;-55
2022/09/05 01:08:52;;;;;;;4.82;2.75;;;;;;;6.48;79.11;99503.50;4857094;29;20046;-58
2022/09/05 01:11:34;;;;;;;3.95;2.95;;;;;;;6.45;78.63;99499.47;4856726;29;20483;-57
2022/09/05 01:14:30;;;;;;;4.35;3.25;;;;;;;6.43;78.85;99506.75;4875963;29;20518;-58
2022/09/05 01:17:21;;;;;;;5.47;2.65;;;;;;;6.29;79.62;99502.53;4895957;29;20056;-54
2022/09/05 01:19:56;;;;;;;4.45;3.40;;;;;;;6.33;78.97;99501.13;4896325;29;20051;-56
2022/09/05 01:22:49;;;;;;;4.82;3.05;;;;;;;6.41;79.34;99502.69;4895206;29;20087;-57
2022/09/05 01:25:37;;;;;;;3.67;2.80;;;;;;;6.40;78.54;99499.25;4894959;29;20128;-57
2022/09/05 01:28:13;;;;;;;3.70;3.13;;;;;;;6.37;79.32;99497.84;4893388;29;20067;-57
2022/09/05 01:30:44;;;;;;;3.80;3.33;;;;;;;6.43;78.89;99503.31;4894411;29;20048;-57
2022/09/05 01:33:25;;;;;;;;;;;;;;;6.42;78.88;99505.13;4895736;29;20084;-57
2022/09/05 01:36:10;;;;;;;;;;;;;;;6.42;78.89;99494.59;4895115;29;19923;-56
2022/09/05 01:38:45;;;;;;;6.40;4.32;;;;;;;6.47;78.80;99492.16;4895007;29;19934;-58
2022/09/05 01:41:31;;;;;;;8.35;5.05;;;;;;;6.47;79.21;99489.53;4895476;29;20040;-58
2022/09/05 01:44:00;;;;;;;7.45;5.38;;;;;;;6.54;78.78;99495.56;4896058;29;20151;-57
2022/09/05 01:47:03;;;;;;;8.55;4.20;;;;;;;6.56;78.81;99485.66;4894594;29;20180;-58
2022/09/05 01:49:29;;;;;;;4.47;3.67;;;;;;;6.55;79.77;99494.53;4895915;29;20056;-57
2022/09/05 01:52:24;;;;;;;4.80;3.85;;;;;;;6.63;79.36;99484.81;4895666;29;20137;-56
2022/09/05 01:55:19;;;;;;;8.02;5.32;;;;;;;6.67;79.04;99486.00;4895955;29;20452;-58
2022/09/05 01:57:51;;;;;;;9.40;6.15;;;;;;;6.70;78.94;99483.75;4894502;29;20518;-57
2022/09/05 02:00:22;;;;;;;4.30;3.25;;;;;;;6.74;78.01;99490.22;4896100;29;20096;-57
2022/09/05 02:02:56;;;;;;;5.90;3.17;;;;;;;6.72;77.88;99470.38;4895034;29;20145;-57
2022/09/05 02:06:00;;;;;;;4.22;2.90;;;;;;;6.84;77.29;99487.13;4895783;29;20049;-57
2022/09/05 02:08:44;;;;;;;5.18;3.00;;;;;;;6.93;77.45;99485.88;4864049;29;20564;-58
2022/09/05 02:11:10;;;;;;;5.07;2.75;;;;;;;6.94;76.94;99484.03;4881575;29;20173;-57
2022/09/05 02:13:36;;;;;;;3.75;2.90;;;;;;;6.96;77.06;99492.56;4894565;29;20232;-57
2022/09/05 02:16:14;;;;;;;4.68;3.55;;;;;;;6.96;76.99;99498.63;4895997;29;20055;-56
2022/09/05 02:18:59;;;;;;;4.22;3.15;;;;;;;6.93;77.21;99498.25;4894884;29;20064;-57
2022/09/05 02:21:40;;;;;;;3.95;3.22;;;;;;;6.92;77.41;99507.19;4893107;29;20052;-56
2022/09/05 02:24:21;;;;;;;;;;;;;;;6.91;76.99;99501.09;4894767;29;20055;-58
2022/09/05 02:26:55;;;;;;;;;;;;;;;6.87;77.60;99504.34;4895662;29;19927;-57
2022/09/05 02:29:39;;;;;;;5.95;4.18;;;;;;;6.83;77.56;99506.59;4895892;29;19984;-58
2022/09/05 02:32:14;;;;;;;5.82;4.80;;;;;;;6.85;77.73;99504.56;4895233;29;20052;-57
2022/09/05 02:34:47;;;;;;;5.30;4.35;;;;;;;6.86;77.89;99503.56;4894156;29;20051;-56
2022/09/05 02:37:23;;;;;;;8.80;6.05;;;;;;;6.82;78.14;99503.19;4894157;29;20055;-55
2022/09/05 02:40:07;;;;;;;11.23;7.15;;;;;;;6.80;78.50;99507.84;4894212;29;20048;-58
2022/09/05 02:42:43;;;;;;;16.73;8.93;;;;;;;6.81;77.97;99504.16;4898591;29;20055;-57
2022/09/05 02:45:20;;;;;;;9.50;6.03;;;;;;;6.89;78.04;99497.06;4880453;29;20056;-57
2022/09/05 02:47:49;;;;;;;15.80;8.77;;;;;;;7.02;78.01;99495.16;4876131;29;20423;-57
2022/09/05 02:50:27;;;;;;;19.58;9.10;;;;;;;7.21;76.97;99503.97;4891985;29;20053;-57
2022/09/05 02:52:55;;;;;;;45.92;20.45;;;;;;;7.19;76.80;99500.72;4898197;29;20055;-56
2022/09/05 02:55:41;;;;;;;45.67;20.50;;;;;;;7.17;76.83;99504.59;4897695;29;20055;-57
2022/09/05 02:58:24;;;;;;;66.93;31.08;;;;;;;7.20;77.05;99501.53;4899014;29;20047;-57
2022/09/05 03:01:17;;;;;;;43.28;19.02;;;;;;;7.18;77.51;99500.97;4881418;29;20160;-58
2022/09/05 03:03:49;;;;;;;20.58;9.60;;;;;;;7.15;77.89;99504.03;4898271;29;20073;-57
2022/09/05 03:06:56;;;;;;;23.92;14.88;;;;;;;7.14;77.83;99508.47;4898585;29;20040;-57
2022/09/05 03:09:27;;;;;;;35.33;15.73;;;;;;;7.19;77.68;99499.94;4884851;29;20144;-56
2022/09/05 03:12:18;;;;;;;46.08;21.80;;;;;;;7.26;77.58;99505.94;4898730;29;20067;-56
2022/09/05 03:15:09;;;;;;;25.45;12.50;;;;;;;7.35;77.00;99509.16;4897614;29;20059;-56
2022/09/05 03:17:34;;;;;;;17.02;9.60;;;;;;;7.36;76.55;99506.31;4897524;29;20051;-57
2022/09/05 03:20:06;;;;;;;49.40;27.10;;;;;;;7.34;76.73;99497.00;4898855;29;20049;-59
2022/09/05 03:23:16;;;;;;;26.40;15.70;;;;;;;7.38;76.99;99499.00;4898751;29;20040;-57
2022/09/05 03:26:04;;;;;;;19.80;12.80;;;;;;;7.36;76.79;99498.41;4851769;29;20052;-58
2022/09/05 03:29:04;;;;;;;16.70;10.18;;;;;;;7.37;77.17;99513.19;4898646;29;20529;-58
2022/09/05 03:31:58;;;;;;;28.33;17.13;;;;;;;7.36;77.23;99503.69;4897567;29;20052;-59
2022/09/05 03:35:01;;;;;;;15.02;10.50;;;;;;;7.28;77.67;99511.84;4897316;29;20036;-59
2022/09/05 03:37:37;;;;;;;20.77;12.70;;;;;;;7.41;77.50;99521.47;4898300;29;20196;-57
2022/09/05 03:40:13;;;;;;;10.60;6.22;;;;;;;7.42;77.28;99518.63;4896795;29;20045;-57
2022/09/05 03:42:53;;;;;;;7.80;4.55;;;;;;;7.43;77.32;99520.25;4896630;29;20063;-57
2022/09/05 03:45:33;;;;;;;7.90;4.18;;;;;;;7.39;77.79;99518.25;4898087;29;20043;-57
2022/09/05 03:48:20;;;;;;;7.18;4.30;;;;;;;7.40;77.89;99504.84;4897645;29;20060;-58
2022/09/05 03:51:09;;;;;;;7.68;4.38;;;;;;;7.30;78.25;99517.72;4897817;29;21700;-55
2022/09/05 03:53:42;;;;;;;8.88;4.60;;;;;;;7.28;78.52;99502.09;4893955;29;20131;-57
2022/09/05 03:56:28;;;;;;;8.13;4.72;;;;;;;7.37;78.32;99507.91;4896107;29;20096;-57
2022/09/05 03:59:27;;;;;;;7.57;4.30;;;;;;;7.43;78.33;99507.06;4897838;29;20048;-58
2022/09/05 04:02:01;;;;;;;7.22;4.30;;;;;;;7.57;77.78;99506.97;4895621;29;20040;-58
2022/09/05 04:04:49;;;;;;;6.80;4.40;;;;;;;7.69;77.55;99506.06;4897096;29;20047;-57
2022/09/05 04:07:29;;;;;;;7.75;5.20;;;;;;;7.71;77.40;99500.56;4890762;29;20083;-57
2022/09/05 04:09:59;;;;;;;6.83;5.07;;;;;;;7.81;77.01;99505.34;4896417;29;20048;-58
2022/09/05 04:12:36;;;;;;;8.52;4.50;;;;;;;7.91;77.17;99508.31;4895835;29;20301;-59
2022/09/05 04:15:11;;;;;;;9.85;4.40;;;;;;;8.02;76.27;99512.88;4897572;29;20051;-58
2022/09/05 04:17:39;;;;;;;9.23;4.80;;;;;;;8.11;75.95;99508.94;4895570;29;20076;-61
2022/09/05 04:20:17;;;;;;;7.55;4.97;;;;;;;8.20;75.73;99517.38;4897558;29;20045;-58
2022/09/05 04:23:04;;;;;;;6.45;4.82;;;;;;;8.30;75.60;99520.34;4895830;29;20173;-58
2022/09/05 04:26:01;;;;;;;7.00;4.93;;;;;;;8.37;75.33;99521.06;4887975;29;20051;-58
2022/09/05 04:29:08;;;;;;;6.93;4.60;;;;;;;8.39;74.96;99521.69;4895525;29;20041;-57
2022/09/05 04:31:57;;;;;;;7.13;5.03;;;;;;;8.47;75.08;99515.31;4891633;29;20050;-58
2022/09/05 04:34:50;;;;;;;7.13;5.10;;;;;;;8.55;74.58;99511.56;4868266;29;20112;-56
2022/09/05 04:37:40;;;;;;;6.95;4.82;;;;;;;8.63;73.84;99514.72;4896513;29;20514;-59
2022/09/05 04:40:40;;;;;;;7.55;4.70;;;;;;;8.65;74.80;99506.56;4897065;29;20044;-61
2022/09/05 04:43:11;;;;;;;8.13;5.00;;;;;;;8.71;73.66;99518.09;4896443;29;20068;-59
2022/09/05 04:45:40;;;;;;;7.40;4.63;;;;;;;8.77;73.74;99512.72;4878018;29;20088;-56
2022/09/05 04:48:08;;;;;;;7.27;4.80;;;;;;;8.83;73.10;99514.47;4875438;29;20041;-59
2022/09/05 04:50:45;;;;;;;12.48;7.53;;;;;;;8.78;73.51;99508.25;4861595;29;20107;-59
2022/09/05 04:53:10;;;;;;;7.65;4.93;;;;;;;8.83;73.92;99506.53;4885537;29;20148;-59
2022/09/05 04:55:48;;;;;;;7.95;4.55;;;;;;;8.91;73.75;99510.69;4896635;29;20116;-59
2022/09/05 04:58:31;;;;;;;8.73;4.70;;;;;;;8.98;73.74;99508.78;4895231;29;20071;-59
2022/09/05 05:01:05;;;;;;;6.50;4.07;;;;;;;9.10;72.36;99514.13;4895541;29;20055;-61
2022/09/05 05:03:33;;;;;;;10.57;4.57;;;;;;;9.10;72.61;99512.28;4895666;29;20139;-61
2022/09/05 05:06:10;;;;;;;7.68;4.80;;;;;;;9.17;72.82;99506.91;4896577;29;20076;-61
2022/09/05 05:08:45;;;;;;;8.57;4.93;;;;;;;9.26;72.76;99513.47;4894325;29;20411;-60
2022/09/05 05:11:17;;;;;;;9.25;4.60;;;;;;;9.31;72.26;99516.25;4894614;29;20043;-61
2022/09/05 05:13:46;;;;;;;6.20;4.72;;;;;;;9.44;72.58;99511.78;4896682;29;20060;-60
2022/09/05 05:16:27;;;;;;;7.97;5.32;;;;;;;9.49;71.35;99515.38;4895281;29;20047;-61
2022/09/05 05:19:00;;;;;;;7.32;4.95;;;;;;;9.59;71.40;99517.50;4895043;29;20048;-61
2022/09/05 05:21:29;;;;;;;10.27;4.60;;;;;;;9.55;71.91;99516.31;4896534;29;20044;-61
2022/09/05 05:24:09;;;;;;;5.47;4.53;;;;;;;9.65;71.52;99516.56;4896032;29;20052;-60
2022/09/05 05:26:46;;;;;;;12.75;5.00;;;;;;;9.73;69.64;99516.22;4896008;29;20149;-61
2022/09/05 05:29:42;;;;;;;7.25;5.30;;;;;;;9.87;69.24;99516.81;4896376;29;20048;-61
2022/09/05 05:32:27;;;;;;;9.70;5.03;;;;;;;10.04;69.75;99509.00;4879260;29;20057;-61
2022/09/05 05:34:55;;;;;;;6.53;5.15;;;;;;;10.13;69.05;99523.50;4894631;29;20514;-60
2022/09/05 05:37:31;;;;;;;7.60;4.80;;;;;;;10.13;69.28;99518.22;4896072;29;20101;-61
2022/09/05 05:40:09;;;;;;;7.50;4.60;;;;;;;10.33;68.01;99517.09;4860938;29;20056;-61
2022/09/05 05:42:40;;;;;;;6.70;4.82;;;;;;;10.37;67.68;99518.22;4891176;29;20048;-60
2022/09/05 05:45:29;;;;;;;9.90;5.22;;;;;;;10.41;67.68;99516.72;4893568;29;20109;-60
2022/09/05 05:47:55;;;;;;;7.97;4.93;;;;;;;10.38;68.44;99520.66;4894947;29;20052;-61
2022/09/05 05:50:42;;;;;;;9.88;4.85;;;;;;;10.53;67.19;99514.88;4895913;29;20502;-61
2022/09/05 05:53:14;;;;;;;6.55;4.88;;;;;;;10.70;66.89;99522.88;4893644;29;20071;-60
2022/09/05 05:56:05;;;;;;;6.97;4.80;;;;;;;10.91;65.37;99521.44;4894888;29;20524;-60
2022/09/05 05:58:49;;;;;;;9.40;5.00;;;;;;;10.98;65.04;99524.75;4889284;29;20052;-59
2022/09/05 06:02:23;;;;;;;7.97;5.05;;;;;;;10.87;64.77;99533.56;4894922;29;20040;-60
2022/09/05 06:05:07;;;;;;;8.88;5.75;;;;;;;10.88;65.38;99528.03;4872875;29;20719;-61
2022/09/05 06:07:45;;;;;;;6.95;5.30;;;;;;;10.76;65.88;99523.78;4859261;29;20057;-60
2022/09/05 06:10:41;;;;;;;5.22;4.45;;;;;;;10.91;65.68;99532.88;4884300;29;20045;-59
2022/09/05 06:13:42;;;;;;;6.30;4.70;;;;;;;10.97;65.03;99528.47;4874885;29;20419;-61
2022/09/05 06:16:40;;;;;;;8.05;4.60;;;;;;;11.06;65.02;99532.34;4874113;29;20053;-61
2022/09/05 06:19:30;;;;;;;6.28;4.47;;;;;;;11.02;64.84;99539.16;4863637;29;20080;-60
2022/09/05 06:22:09;;;;;;;7.32;4.60;;;;;;;11.29;64.02;99541.22;4898293;29;20087;-60
2022/09/05 06:24:56;;;;;;;7.07;4.80;;;;;;;11.45;63.49;99534.38;4894225;29;20472;-61
2022/09/05 06:27:56;;;;;;;7.72;5.00;;;;;;;11.55;62.27;99527.34;4897381;29;20045;-60
2022/09/05 06:30:22;;;;;;;6.75;5.05;;;;;;;11.66;61.49;99530.19;4882950;29;20076;-58
2022/09/05 06:33:25;;;;;;;6.75;4.20;;;;;;;11.53;62.24;99533.94;4886139;29;20131;-59
2022/09/05 06:36:32;;;;;;;5.32;4.50;;;;;;;11.52;62.39;99529.69;4898207;29;20185;-60
2022/09/05 06:39:19;;;;;;;6.53;4.63;;;;;;;11.57;62.76;99535.91;4896285;29;20061;-61
2022/09/05 06:42:11;;;;;;;6.13;4.50;;;;;;;11.58;62.42;99537.50;4898689;29;20091;-59
2022/09/05 06:45:06;;;;;;;6.40;4.38;;;;;;;11.39;62.50;99535.31;4898729;29;20534;-61
2022/09/05 06:47:34;;;;;;;5.10;4.30;;;;;;;11.14;62.79;99534.59;4895567;29;20057;-61
2022/09/05 06:50:22;;;;;;;13.38;8.38;;;;;;;11.05;63.65;99533.38;4898949;29;20056;-60
2022/09/05 06:53:13;;;;;;;7.40;5.15;;;;;;;10.94;63.64;99534.22;4897233;29;20151;-60
2022/09/05 06:56:11;;;;;;;5.30;4.18;;;;;;;10.92;64.00;99536.31;4898399;29;20045;-62
2022/09/05 06:59:12;;;;;;;5.50;4.38;;;;;;;11.34;62.94;99530.72;4874880;29;20061;-61
2022/09/05 07:01:49;;;;;;;6.32;4.93;;;;;;;11.55;61.61;99532.66;4879192;29;20040;-60
2022/09/05 07:04:34;;;;;;;4.35;3.80;;;;;;;11.68;60.24;99533.44;4897580;29;20075;-61
2022/09/05 07:07:21;;;;;;;4.70;3.50;;;;;;;11.57;59.44;99541.19;4896799;29;20048;-62
2022/09/05 07:09:54;;;;;;;4.95;3.47;;;;;;;11.63;59.84;99543.94;4896691;29;20430;-62
2022/09/05 07:12:39;;;;;;;4.32;3.58;;;;;;;11.75;60.23;99539.38;4895852;29;20049;-61
2022/09/05 07:15:08;;;;;;;5.53;3.80;;;;;;;12.05;58.53;99531.09;4882809;29;20096;-60
2022/09/05 07:17:33;;;;;;;5.35;4.20;;;;;;;12.12;57.65;99525.59;4897213;29;20052;-61
2022/09/05 07:20:02;;;;;;;6.75;4.32;;;;;;;12.01;58.66;99520.16;4898995;29;20044;-61
2022/09/05 07:22:47;;;;;;;4.63;3.53;;;;;;;11.88;58.18;99527.63;4896546;29;20512;-61
2022/09/05 07:25:16;;;;;;;4.80;3.13;;;;;;;11.75;58.78;99531.41;4898097;29;20056;-61
2022/09/05 07:27:50;;;;;;;3.97;3.00;;;;;;;11.81;58.64;99525.91;4879514;29;20044;-61
2022/09/05 07:30:17;;;;;;;3.15;2.85;;;;;;;11.90;57.96;99523.69;4897727;29;20478;-60
2022/09/05 07:32:44;;;;;;;2.75;2.25;;;;;;;11.94;57.60;99526.66;4896999;29;20045;-62
2022/09/05 07:35:20;;;;;;;3.63;2.28;;;;;;;11.87;57.46;99531.34;4896265;29;20044;-61
2022/09/05 07:37:52;;;;;;;3.42;2.60;;;;;;;11.87;58.19;99532.16;4897535;29;20136;-60
2022/09/05 07:40:20;;;;;;;3.05;2.75;;;;;;;12.07;57.87;99522.88;4880937;29;20143;-61
2022/09/05 07:43:17;;;;;;;5.70;3.28;;;;;;;12.43;57.02;99522.31;4897484;29;20131;-59
2022/09/05 07:45:47;;;;;;;3.17;2.88;;;;;;;12.73;56.11;99519.25;4892667;29;20335;-63
2022/09/05 07:48:20;;;;;;;7.18;3.67;;;;;;;12.59;54.56;99506.56;4896719;29;20488;-61
2022/09/05 07:50:49;;;;;;;4.95;2.40;;;;;;;12.41;54.77;99521.78;4895680;29;20051;-60
2022/09/05 07:53:16;;;;;;;4.85;2.40;;;;;;;12.45;55.08;99522.09;4895104;29;20060;-62
2022/09/05 07:55:42;;;;;;;3.75;2.40;;;;;;;12.48;54.83;99516.28;4863931;29;20076;-60
2022/09/05 07:58:12;;;;;;;2.30;2.10;;;;;;;12.58;53.71;99520.91;4895043;29;20119;-60
2022/09/05 08:00:38;;;;;;;3.53;2.53;;;;;;;12.73;53.74;99519.25;4895959;29;20048;-61
2022/09/05 08:03:12;;;;;;;4.63;2.30;;;;;;;12.77;52.96;99521.44;4894710;29;20112;-62
2022/09/05 08:05:47;;;;;;;6.05;2.58;;;;;;;12.87;52.59;99513.53;4896941;29;20050;-61
2022/09/05 08:08:16;;;;;;;4.90;2.33;;;;;;;12.89;52.86;99514.91;4895159;29;20140;-60
2022/09/05 08:10:54;;;;;;;4.18;2.97;;;;;;;12.72;52.98;99511.50;4893860;29;20431;-61
2022/09/05 08:13:49;;;;;;;3.28;2.40;;;;;;;12.76;53.74;99514.47;4893508;29;20052;-59
2022/09/05 08:16:18;;;;;;;7.80;2.45;;;;;;;12.74;53.64;99525.38;4894178;29;20080;-62
2022/09/05 08:18:48;;;;;;;3.85;2.40;;;;;;;12.60;53.61;99521.47;4875429;29;20060;-67
2022/09/05 08:21:40;;;;;;;4.88;2.65;;;;;;;12.63;54.03;99511.16;4875883;29;20527;-62
2022/09/05 08:24:11;;;;;;;3.63;2.10;;;;;;;12.65;53.50;99510.91;4889926;29;20488;-60
2022/09/05 08:26:49;;;;;;;4.85;2.40;;;;;;;12.79;53.25;99511.31;4891676;29;20048;-63
2022/09/05 08:29:34;;;;;;;1.92;1.73;;;;;;;12.91;52.64;99504.00;4896814;29;20059;-61
2022/09/05 08:32:09;;;;;;;3.83;1.90;;;;;;;12.85;51.99;99510.31;4897339;29;20056;-60
2022/09/05 08:34:53;;;;;;;5.28;2.20;;;;;;;12.86;52.53;99504.75;4897171;29;20040;-61
2022/09/05 08:37:21;;;;;;;3.80;2.10;;;;;;;12.89;52.71;99503.47;4896526;29;20076;-62
2022/09/05 08:39:49;;;;;;;2.53;2.10;;;;;;;12.91;53.05;99510.16;4896265;29;20451;-62
2022/09/05 08:42:21;;;;;;;3.65;2.13;;;;;;;12.70;53.26;99502.97;4894335;29;20098;-62
2022/09/05 08:45:16;;;;;;;2.28;1.90;;;;;;;12.78;53.69;99499.88;4895519;29;20054;-62
2022/09/05 08:47:55;;;;;;;2.47;1.83;;;;;;;12.94;53.27;99493.69;4896437;29;20126;-62
2022/09/05 08:50:27;;;;;;;2.15;1.95;;;;;;;12.99;53.15;99500.09;4894305;29;20597;-63
2022/09/05 08:53:50;;;;;;;3.15;2.28;;;;;;;13.08;53.30;99502.06;4895475;29;20132;-61
2022/09/05 08:56:52;;;;;;;4.35;2.60;;;;;;;13.25;53.21;99501.16;4857272;29;20149;-61
2022/09/05 08:59:25;;;;;;;2.65;2.10;;;;;;;13.11;53.12;99498.09;4873212;29;20080;-62
2022/09/05 09:02:13;;;;;;;3.13;2.03;;;;;;;13.04;53.09;99498.31;4892375;29;20064;-62
2022/09/05 09:04:42;;;;;;;3.35;2.33;;;;;;;12.97;53.52;99495.03;4895962;29;20052;-62
2022/09/05 09:07:37;;;;;;;6.60;3.53;;;;;;;12.85;54.29;99492.53;4894027;29;20095;-62
2022/09/05 09:10:19;;;;;;;2.00;1.80;;;;;;;12.78;53.70;99502.53;4894155;29;20053;-63
2022/09/05 09:12:57;;;;;;;4.20;2.33;;;;;;;12.66;54.47;99501.88;4894899;29;20040;-62
2022/09/05 09:15:45;;;;;;;2.65;1.58;;;;;;;12.76;54.34;99493.19;4879909;29;20048;-60
2022/09/05 09:18:15;;;;;;;5.28;2.17;;;;;;;12.75;54.57;99502.25;4879227;29;20111;-62
2022/09/05 09:20:56;;;;;;;2.63;2.05;;;;;;;12.72;54.87;99487.56;4896294;29;20581;-61
2022/09/05 09:23:51;;;;;;;2.80;1.90;;;;;;;12.76;54.91;99494.00;4878521;29;20049;-63
2022/09/05 09:26:29;;;;;;;3.53;1.85;;;;;;;12.75;54.86;99491.59;4876723;29;20057;-63
2022/09/05 09:28:54;;;;;;;6.13;4.10;;;;;;;12.65;55.37;99477.13;4893853;29;20059;-62
2022/09/05 09:31:38;;;;;;;3.40;1.85;;;;;;;12.67;55.71;99485.66;4894730;29;20131;-63
2022/09/05 09:34:33;;;;;;;3.20;2.33;;;;;;;12.67;55.97;99477.66;4879261;29;20049;-62
2022/09/05 09:37:17;;;;;;;2.05;1.60;;;;;;;12.59;56.15;99486.09;4878788;29;20052;-62
2022/09/05 09:40:11;;;;;;;3.63;2.17;;;;;;;12.62;56.15;99485.63;4894041;29;20147;-62
2022/09/05 09:42:44;;;;;;;4.40;2.47;;;;;;;12.70;56.23;99487.00;4894282;29;20384;-62
2022/09/05 09:45:28;;;;;;;6.15;2.58;;;;;;;12.60;56.67;99478.94;4894601;29;20048;-61
2022/09/05 09:48:13;;;;;;;3.75;2.53;;;;;;;12.46;57.17;99471.31;4896295;29;20067;-62
2022/09/05 09:51:00;;;;;;;6.25;3.65;;;;;;;12.36;57.90;99479.19;4877547;29;20053;-62
2022/09/05 09:53:35;;;;;;;6.20;4.50;;;;;;;12.35;58.61;99474.88;4894737;29;20239;-63
2022/09/05 09:56:26;;;;;;;11.60;6.75;;;;;;;12.41;58.62;99481.06;4895232;29;20060;-62
2022/09/05 09:59:25;;;;;;;5.15;2.67;;;;;;;12.42;58.23;99474.72;4878016;29;20148;-63
2022/09/05 10:02:21;;;;;;;6.18;3.80;;;;;;;12.61;57.97;99465.38;4893596;29;20416;-61
2022/09/05 10:05:11;;;;;;;9.10;3.00;;;;;;;12.72;57.88;99472.41;4869238;29;20060;-63
2022/09/05 10:07:57;;;;;;;4.97;2.88;;;;;;;12.63;57.74;99465.13;4874743;29;20057;-62
2022/09/05 10:10:55;;;;;;;4.78;2.42;;;;;;;12.19;61.63;99486.38;4875970;29;20097;-60
2022/09/05 10:13:40;;;;;;;6.35;2.45;;;;;;;11.79;66.06;99488.19;4892958;29;20186;-61
2022/09/05 10:16:27;;;;;;;1.60;1.42;;;;;;;11.74;68.28;99482.00;4892489;29;20524;-61
2022/09/05 10:19:18;;;;;;;1.30;1.20;;;;;;;11.60;69.86;99476.19;4893723;29;20112;-61
2022/09/05 10:21:52;;;;;;;1.83;1.40;;;;;;;11.75;70.15;99479.09;4893296;29;20049;-62
2022/09/05 10:24:52;;;;;;;2.60;1.90;;;;;;;12.04;69.65;99486.97;4891827;29;20688;-61
2022/09/05 10:27:59;;;;;;;3.85;3.38;;;;;;;12.34;69.34;99478.59;4894771;29;20054;-60
2022/09/05 10:30:49;;;;;;;3.90;3.05;;;;;;;12.56;66.92;99472.47;4889859;29;20045;-62
2022/09/05 10:33:30;;;;;;;;;;;;;;;12.68;65.99;99466.00;4893899;29;20076;-63
2022/09/05 10:36:05;;;;;;;2.22;2.00;;;;;;;12.77;63.84;99447.75;4894068;29;19986;-60
2022/09/05 10:38:39;;;;;;;4.15;2.50;;;;;;;13.03;64.60;99463.94;4894302;29;20048;-61
2022/09/05 10:41:13;;;;;;;3.47;2.40;;;;;;;12.92;63.18;99455.88;4893898;29;20045;-60
2022/09/05 10:43:48;;;;;;;2.75;1.63;;;;;;;12.65;62.31;99474.47;4893739;29;20124;-61
2022/09/05 10:46:26;;;;;;;3.30;1.90;;;;;;;12.02;68.75;99473.94;4877302;29;20059;-60
2022/09/05 10:48:53;;;;;;;1.80;1.27;;;;;;;11.69;73.53;99471.28;4862305;29;20045;-60
2022/09/05 10:51:34;;;;;;;3.83;1.33;;;;;;;11.46;77.35;99465.09;4895472;29;20067;-62
2022/09/05 10:54:06;;;;;;;;;;;;;;;11.31;78.43;99462.19;4894493;29;20052;-61
2022/09/05 10:57:03;;;;;;;2.60;1.50;;;;;;;11.09;77.89;99462.09;4892647;29;19962;-61
2022/09/05 10:59:55;;;;;;;5.30;1.60;;;;;;;11.09;78.38;99462.91;4894033;29;20076;-62
2022/09/05 11:02:22;;;;;;;2.08;1.60;;;;;;;11.05;77.34;99455.63;4887644;29;20060;-60
2022/09/05 11:04:52;;;;;;;1.40;1.27;;;;;;;11.20;76.67;99452.44;4898615;29;20109;-61
2022/09/05 11:07:24;;;;;;;1.63;1.30;;;;;;;11.36;75.50;99443.72;4896621;29;20052;-60
2022/09/05 11:10:13;;;;;;;2.33;1.50;;;;;;;11.55;73.29;99446.91;4897950;29;20139;-61
2022/09/05 11:13:09;;;;;;;1.80;1.42;;;;;;;11.86;73.63;99442.09;4898818;29;20661;-60
2022/09/05 11:15:38;;;;;;;2.35;1.33;;;;;;;11.92;70.55;99446.44;4897334;29;20100;-59
2022/09/05 11:18:40;;;;;;;2.20;1.25;;;;;;;11.90;70.50;99435.25;4880810;29;20059;-59
2022/09/05 11:21:14;;;;;;;1.70;1.30;;;;;;;11.98;70.87;99430.31;4875121;29;20059;-60
2022/09/05 11:24:26;;;;;;;2.65;1.30;;;;;;;11.96;70.03;99432.41;4877754;29;20471;-60
2022/09/05 11:27:39;;;;;;;1.38;1.10;;;;;;;12.08;68.29;99439.47;4917426;23;20053;-58
2022/09/05 11:30:06;;;;;;;3.10;1.40;;;;;;;12.18;69.50;99439.63;4859080;29;20056;-62
2022/09/05 11:32:47;;;;;;;1.70;1.20;;;;;;;12.14;67.59;99449.09;4875502;29;20059;-61
2022/09/05 11:35:21;;;;;;;1.33;1.10;;;;;;;12.07;67.66;99445.84;4855972;29;20541;-60
2022/09/05 11:37:55;;;;;;;1.17;1.00;;;;;;;11.89;68.24;99431.00;4858404;29;20132;-61
2022/09/05 11:40:27;;;;;;;1.88;1.20;;;;;;;11.85;68.76;99433.31;4859050;29;20045;-61
2022/09/05 11:43:19;;;;;;;2.10;1.20;;;;;;;11.92;69.54;99433.94;4859043;29;20045;-61
2022/09/05 11:45:51;;;;;;;1.20;1.10;;;;;;;12.18;68.89;99431.63;4873785;29;20508;-60
2022/09/05 11:48:40;;;;;;;1.40;1.30;;;;;;;12.23;68.31;99437.00;4861860;29;20076;-61
2022/09/05 11:51:24;;;;;;;1.50;1.40;;;;;;;12.26;68.91;99437.34;4860025;29;20122;-60
2022/09/05 11:53:53;;;;;;;2.25;1.52;;;;;;;12.42;68.47;99432.19;4869439;29;20052;-62
2022/09/05 11:56:33;;;;;;;2.22;1.40;;;;;;;12.39;67.44;99428.19;4881862;29;20201;-60
2022/09/05 11:59:36;;;;;;;1.40;1.30;;;;;;;12.45;68.02;99423.72;4877087;29;20041;-58
2022/09/05 12:02:20;;;;;;;2.35;1.58;;;;;;;12.52;67.24;99421.66;4859653;29;20490;-60
2022/09/05 12:05:24;;;;;;;2.42;1.90;;;;;;;12.80;67.59;99427.81;4859090;29;20053;-60
2022/09/05 12:08:05;;;;;;;3.10;2.08;;;;;;;12.88;63.95;99420.19;4845038;29;20449;-60
2022/09/05 12:10:45;;;;;;;3.45;2.10;;;;;;;12.75;64.50;99423.25;4877975;29;20056;-61
2022/09/05 12:13:15;;;;;;;9.10;2.25;;;;;;;12.85;65.03;99417.22;4869909;29;20452;-60
2022/09/05 12:15:45;;;;;;;4.88;3.72;;;;;;;12.78;64.05;99416.63;4860450;29;20044;-61
2022/09/05 12:18:48;;;;;;;3.10;2.08;;;;;;;12.56;65.45;99419.31;4842833;29;20073;-61
2022/09/05 12:21:27;;;;;;;2.10;1.60;;;;;;;12.59;64.75;99416.97;4859432;29;20527;-59
2022/09/05 12:24:25;;;;;;;1.45;1.20;;;;;;;12.62;64.28;99421.00;4859245;29;20081;-60
2022/09/05 12:27:12;;;;;;;2.03;1.42;;;;;;;12.64;63.99;99413.53;4873411;29;20452;-61
2022/09/05 12:29:39;;;;;;;2.70;1.45;;;;;;;12.77;64.18;99405.19;4858544;29;20105;-60
2022/09/05 12:32:16;;;;;;;2.53;1.65;;;;;;;12.72;63.86;99405.13;4858707;29;20069;-61
2022/09/05 12:34:49;;;;;;;2.92;1.70;;;;;;;12.65;64.09;99407.19;4859391;29;20049;-61
2022/09/05 12:37:24;;;;;;;2.92;2.00;;;;;;;12.37;64.88;99414.31;4859728;29;20060;-60
2022/09/05 12:40:09;;;;;;;3.55;2.35;;;;;;;12.06;66.96;99421.13;4858741;29;20068;-61
2022/09/05 12:42:39;;;;;;;3.17;2.20;;;;;;;11.93;67.13;99410.84;4859324;29;20056;-61
2022/09/05 12:45:14;;;;;;;4.05;2.10;;;;;;;11.80;67.86;99406.66;4858245;29;20408;-60
2022/09/05 12:47:52;;;;;;;2.58;1.67;;;;;;;11.65;68.81;99407.25;4860265;29;20057;-61